Time;durP1;ratioP1;P1;durP2;ratioP2;P2;SDS_P1;SDS_P2;PMS_P1;PMS_P2;Temp;Humidity;BMP_temperature;BMP_pressure;BME280_temperature;BME280_humidity;BME280_pressure;Samples;Min_cycle;Max_cycle;Signal;HPM_P1;HPM_P2
2022/10/21 00:00:31;;;;;;;6.90;4.30;;;;;;;13.11;100.00;100747.28;4978049;28;20027;-92
2022/10/21 00:02:57;;;;;;;8.30;4.53;;;;;;;13.11;100.00;100739.47;4977776;28;20022;-93
2022/10/21 00:05:22;;;;;;;6.97;4.33;;;;;;;13.12;100.00;100742.91;4977413;28;20487;-92
2022/10/21 00:07:47;;;;;;;6.33;3.80;;;;;;;13.12;100.00;100733.34;4977784;28;20130;-93
2022/10/21 00:10:13;;;;;;;5.97;3.53;;;;;;;13.12;100.00;100732.47;4977613;28;20026;-93
2022/10/21 00:12:38;;;;;;;4.03;3.27;;;;;;;13.11;100.00;100731.66;4977653;28;20026;-93
2022/10/21 00:15:08;;;;;;;4.50;3.30;;;;;;;13.09;100.00;100728.22;4977357;28;20129;-92
2022/10/21 00:17:36;;;;;;;3.97;3.05;;;;;;;13.07;100.00;100731.78;4977408;28;20022;-92
2022/10/21 00:20:06;;;;;;;4.80;3.03;;;;;;;13.05;100.00;100731.81;4977463;28;20114;-92
2022/10/21 00:22:32;;;;;;;4.10;3.08;;;;;;;13.04;100.00;100729.25;4977551;28;20038;-93
2022/10/21 00:24:58;;;;;;;4.80;3.30;;;;;;;13.00;100.00;100725.88;4976613;28;20027;-92
2022/10/21 00:27:23;;;;;;;5.27;3.73;;;;;;;12.95;100.00;100717.31;4977440;28;20635;-93
2022/10/21 00:29:48;;;;;;;5.27;3.70;;;;;;;12.93;100.00;100721.75;4977598;28;20030;-93
2022/10/21 00:32:14;;;;;;;4.57;3.20;;;;;;;12.89;100.00;100707.91;4976860;28;20026;-92
2022/10/21 00:34:42;;;;;;;5.47;3.47;;;;;;;12.91;100.00;100710.50;4977553;28;20082;-93
2022/10/21 00:37:10;;;;;;;5.72;3.95;;;;;;;12.90;100.00;100706.19;4977162;28;20023;-92
2022/10/21 00:39:36;;;;;;;5.10;3.67;;;;;;;12.89;100.00;100714.88;4977458;28;20089;-92
2022/10/21 00:42:06;;;;;;;7.60;4.10;;;;;;;12.87;100.00;100704.53;4977084;28;20084;-93
2022/10/21 00:44:34;;;;;;;5.57;3.60;;;;;;;12.86;100.00;100713.22;4976992;28;20129;-92
2022/10/21 00:47:07;;;;;;;4.85;3.50;;;;;;;12.85;100.00;100714.13;4976690;28;20031;-92
2022/10/21 00:49:38;;;;;;;5.53;3.70;;;;;;;12.86;100.00;100714.97;4976813;28;20077;-93
2022/10/21 00:52:07;;;;;;;6.30;3.80;;;;;;;12.85;100.00;100716.72;4976304;28;20058;-92
2022/10/21 00:54:34;;;;;;;4.95;3.28;;;;;;;12.86;100.00;100718.44;4976550;28;20046;-93
2022/10/21 00:56:59;;;;;;;5.03;3.50;;;;;;;12.87;100.00;100704.53;4976841;28;20063;-92
2022/10/21 00:59:30;;;;;;;7.83;4.80;;;;;;;12.89;100.00;100702.72;4976827;28;20105;-93
2022/10/21 01:01:56;;;;;;;5.95;3.60;;;;;;;12.89;100.00;100696.66;4976112;28;20074;-92
2022/10/21 01:04:21;;;;;;;6.87;4.20;;;;;;;12.89;100.00;100696.66;4976375;28;20019;-92
2022/10/21 01:06:48;;;;;;;8.17;4.43;;;;;;;12.88;100.00;100695.81;4976348;28;20029;-93
2022/10/21 01:09:14;;;;;;;6.63;4.00;;;;;;;12.90;100.00;100685.34;4976489;28;20035;-92
2022/10/21 01:11:44;;;;;;;5.67;3.80;;;;;;;12.92;100.00;100680.97;4976521;28;20388;-92
2022/10/21 01:14:21;;;;;;;7.70;4.28;;;;;;;12.93;100.00;100682.66;4976449;28;20524;-92
2022/10/21 01:17:23;;;;;;;7.82;4.50;;;;;;;12.92;100.00;100678.34;4976282;28;20534;-93
2022/10/21 01:20:07;;;;;;;6.53;4.10;;;;;;;12.90;100.00;100685.34;4976577;28;20030;-92
2022/10/21 01:23:09;;;;;;;5.90;4.05;;;;;;;12.88;100.00;100669.78;4976595;28;20073;-92
2022/10/21 01:26:06;;;;;;;5.40;3.80;;;;;;;12.86;100.00;100673.28;4976350;28;20039;-93
2022/10/21 01:29:05;;;;;;;5.15;3.60;;;;;;;12.82;100.00;100657.78;4976483;28;20031;-92
2022/10/21 01:31:42;;;;;;;5.60;3.40;;;;;;;12.80;100.00;100651.75;4976059;28;20364;-92
2022/10/21 01:34:36;;;;;;;5.22;3.30;;;;;;;12.78;100.00;100655.25;4976113;28;20023;-93
2022/10/21 01:37:09;;;;;;;4.80;3.03;;;;;;;12.74;100.00;100656.28;4975225;28;20035;-92
2022/10/21 01:39:59;;;;;;;4.30;3.10;;;;;;;12.71;100.00;100657.22;4975810;28;20080;-93
2022/10/21 01:42:34;;;;;;;4.80;3.15;;;;;;;12.69;100.00;100643.38;4976042;28;20038;-92
2022/10/21 01:45:14;;;;;;;3.92;2.80;;;;;;;12.68;100.00;100646.88;4976240;28;20037;-92
2022/10/21 01:47:45;;;;;;;4.68;3.30;;;;;;;12.67;100.00;100642.56;4976262;28;20033;-92
2022/10/21 01:50:16;;;;;;;4.40;2.97;;;;;;;12.65;100.00;100639.13;4975686;28;20026;-92
2022/10/21 01:52:46;;;;;;;5.32;3.28;;;;;;;12.63;100.00;100625.31;4975452;28;20038;-93
2022/10/21 01:55:16;;;;;;;5.60;3.63;;;;;;;12.59;100.00;100629.75;4975431;28;20046;-92
2022/10/21 01:57:48;;;;;;;6.22;3.33;;;;;;;12.56;100.00;100621.16;4975929;28;20122;-93
2022/10/21 02:00:13;;;;;;;4.28;2.92;;;;;;;12.52;100.00;100625.59;4975438;28;20041;-92
2022/10/21 02:02:44;;;;;;;3.67;2.60;;;;;;;12.49;100.00;100621.34;4975192;28;20030;-92
2022/10/21 02:05:17;;;;;;;3.95;2.58;;;;;;;12.48;100.00;100616.16;4975408;28;20027;-92
2022/10/21 02:07:42;;;;;;;3.97;2.63;;;;;;;12.46;100.00;100612.75;4975582;28;20026;-92
2022/10/21 02:10:08;;;;;;;4.20;2.70;;;;;;;12.42;100.00;100611.13;4975690;28;20031;-92
2022/10/21 02:12:36;;;;;;;4.27;3.20;;;;;;;12.39;100.00;100609.44;4975390;28;20054;-93
2022/10/21 02:15:05;;;;;;;3.78;2.75;;;;;;;12.39;100.00;100612.03;4974827;28;20201;-93
2022/10/21 02:17:33;;;;;;;2.97;2.47;;;;;;;12.38;100.00;100612.97;4975646;28;20062;-92
2022/10/21 02:20:01;;;;;;;3.30;2.58;;;;;;;12.36;100.00;100610.38;4975456;28;20027;-92
2022/10/21 02:22:28;;;;;;;3.05;2.50;;;;;;;12.33;100.00;100594.84;4975468;28;20034;-92
2022/10/21 02:25:15;;;;;;;3.20;2.65;;;;;;;12.32;100.00;100589.69;4974913;28;20027;-93
2022/10/21 02:27:40;;;;;;;4.45;2.90;;;;;;;12.32;100.00;100598.38;4975807;28;20034;-92
2022/10/21 02:30:06;;;;;;;5.00;2.97;;;;;;;12.30;100.00;100596.69;4975124;28;20093;-93
2022/10/21 02:32:52;;;;;;;4.67;3.27;;;;;;;12.29;100.00;100593.25;4975082;28;20054;-92
2022/10/21 02:35:37;;;;;;;4.38;3.08;;;;;;;12.26;100.00;100606.31;4975224;28;20278;-92
2022/10/21 02:38:25;;;;;;;3.13;2.60;;;;;;;12.24;100.00;100613.31;4975369;28;20034;-93
2022/10/21 02:40:54;;;;;;;3.40;2.60;;;;;;;12.22;100.00;100614.25;4975040;28;20081;-92
2022/10/21 02:43:29;;;;;;;4.68;3.30;;;;;;;12.18;100.00;100592.66;4975452;28;20061;-92
2022/10/21 02:46:04;;;;;;;4.15;2.72;;;;;;;12.16;100.00;100610.06;4975381;28;20503;-92
2022/10/21 02:48:32;;;;;;;5.53;3.20;;;;;;;12.15;100.00;100608.34;4975232;28;20073;-93
2022/10/21 02:50:58;;;;;;;4.53;2.88;;;;;;;12.13;100.00;100615.34;4974504;28;20041;-93
2022/10/21 02:53:23;;;;;;;3.37;2.80;;;;;;;12.11;100.00;100597.19;4974636;28;20039;-92
2022/10/21 02:55:48;;;;;;;4.87;2.90;;;;;;;12.10;100.00;100595.47;4974841;28;20027;-92
2022/10/21 02:58:13;;;;;;;4.13;3.10;;;;;;;12.09;100.00;100590.31;4974930;28;20073;-92
2022/10/21 03:00:39;;;;;;;3.83;2.70;;;;;;;12.09;100.00;100587.72;4974857;28;20391;-93
2022/10/21 03:03:04;;;;;;;4.03;2.83;;;;;;;12.07;100.00;100579.94;4974537;28;20169;-92
2022/10/21 03:05:29;;;;;;;4.07;2.77;;;;;;;12.10;100.00;100586.81;4974777;28;20049;-92
2022/10/21 03:07:54;;;;;;;2.93;2.63;;;;;;;12.12;100.00;100579.81;4975034;28;20019;-93
2022/10/21 03:10:20;;;;;;;5.10;3.43;;;;;;;12.11;100.00;100586.78;4975089;28;20379;-93
2022/10/21 03:12:48;;;;;;;4.47;3.17;;;;;;;12.10;100.00;100592.88;4976909;28;20074;-93
2022/10/21 03:15:14;;;;;;;4.45;2.97;;;;;;;12.09;100.00;100585.09;4978825;28;20383;-93
2022/10/21 03:17:39;;;;;;;4.80;3.50;;;;;;;12.06;100.00;100586.03;4978463;28;20034;-93
2022/10/21 03:20:04;;;;;;;5.30;3.20;;;;;;;12.04;100.00;100580.03;4978922;28;20447;-92
2022/10/21 03:22:30;;;;;;;3.50;2.80;;;;;;;12.03;100.00;100583.53;4978515;28;20094;-93
2022/10/21 03:24:55;;;;;;;3.77;2.70;;;;;;;11.99;100.00;100579.28;4977993;28;20091;-92
2022/10/21 03:27:20;;;;;;;3.40;2.60;;;;;;;11.97;100.00;100584.50;4978311;28;20025;-92
2022/10/21 03:29:45;;;;;;;3.37;2.70;;;;;;;11.96;100.00;100588.00;4977908;28;20471;-93
2022/10/21 03:32:11;;;;;;;3.77;2.83;;;;;;;11.90;100.00;100585.53;4978191;28;20098;-93
2022/10/21 03:34:36;;;;;;;3.27;2.70;;;;;;;11.86;100.00;100592.56;4978578;28;20517;-93
2022/10/21 03:37:01;;;;;;;3.23;2.50;;;;;;;11.85;100.00;100593.44;4977876;28;20030;-93
2022/10/21 03:39:27;;;;;;;3.07;2.50;;;;;;;11.83;100.00;100590.03;4978428;28;20031;-93
2022/10/21 03:41:52;;;;;;;3.43;2.77;;;;;;;11.80;100.00;100584.91;4977862;28;20083;-93
2022/10/21 03:44:17;;;;;;;2.93;2.50;;;;;;;11.80;100.00;100582.31;4978603;28;20049;-93
2022/10/21 03:46:42;;;;;;;3.13;2.30;;;;;;;11.79;100.00;100579.72;4978477;28;20027;-93
2022/10/21 03:49:09;;;;;;;3.27;2.30;;;;;;;11.75;100.00;100578.97;4977820;28;20031;-93
2022/10/21 03:51:34;;;;;;;3.13;2.45;;;;;;;11.73;100.00;100575.53;4977665;28;20081;-93
2022/10/21 03:53:59;;;;;;;4.23;2.50;;;;;;;11.72;100.00;100576.44;4977339;28;20042;-92
2022/10/21 03:56:25;;;;;;;3.10;2.43;;;;;;;11.69;100.00;100573.94;4977920;28;20373;-92
2022/10/21 03:58:50;;;;;;;3.37;2.50;;;;;;;11.65;100.00;100575.72;4977870;28;20097;-93
2022/10/21 04:01:15;;;;;;;3.37;2.60;;;;;;;11.65;100.00;100570.53;4977158;28;20037;-92
2022/10/21 04:03:41;;;;;;;3.40;2.60;;;;;;;11.65;100.00;100577.47;4976966;28;20034;-92
2022/10/21 04:06:06;;;;;;;3.13;2.40;;;;;;;11.61;100.00;100568.91;4977562;28;20031;-93
2022/10/21 04:08:32;;;;;;;3.43;2.53;;;;;;;11.56;100.00;100566.41;4977718;28;20158;-93
2022/10/21 04:10:58;;;;;;;3.77;2.57;;;;;;;11.56;100.00;100573.34;4977566;28;20034;-93
2022/10/21 04:13:23;;;;;;;3.07;2.47;;;;;;;11.54;100.00;100572.56;4977560;28;20018;-93
2022/10/21 04:15:48;;;;;;;3.20;2.40;;;;;;;11.52;100.00;100577.78;4977673;28;20027;-93
2022/10/21 04:18:14;;;;;;;2.60;2.40;;;;;;;11.48;100.00;100581.34;4977814;28;20489;-92
2022/10/21 04:20:39;;;;;;;3.40;2.67;;;;;;;11.46;100.00;100582.25;4977671;28;20026;-93
2022/10/21 04:23:04;;;;;;;3.57;2.70;;;;;;;11.42;100.00;100582.34;4977479;28;20102;-93
2022/10/21 04:25:30;;;;;;;3.90;2.50;;;;;;;11.40;100.00;100568.53;4976896;28;20114;-93
2022/10/21 04:27:55;;;;;;;2.63;2.27;;;;;;;11.37;100.00;100571.19;4976994;28;20038;-93
2022/10/21 04:30:20;;;;;;;3.27;2.47;;;;;;;11.35;100.00;100569.53;4977627;28;20023;-93
2022/10/21 04:32:46;;;;;;;3.63;2.60;;;;;;;11.28;100.00;100561.84;4977379;28;20027;-93
2022/10/21 04:35:11;;;;;;;3.20;2.40;;;;;;;11.27;100.00;100567.94;4977360;28;20015;-92
2022/10/21 04:37:38;;;;;;;2.90;2.40;;;;;;;11.23;100.00;100576.69;4970517;28;20027;-92
2022/10/21 04:40:06;;;;;;;3.42;2.50;;;;;;;11.20;100.00;100581.97;4957761;29;20548;-93
2022/10/21 04:42:31;;;;;;;3.20;2.40;;;;;;;11.17;100.00;100586.38;4957842;29;20038;-92
2022/10/21 04:44:56;;;;;;;3.47;2.53;;;;;;;11.16;100.00;100580.31;4957655;29;20110;-92
2022/10/21 04:47:21;;;;;;;3.53;2.10;;;;;;;11.13;100.00;100576.03;4957867;29;20019;-92
2022/10/21 04:49:47;;;;;;;2.47;2.13;;;;;;;11.11;100.00;100577.81;4957501;29;20039;-92
2022/10/21 04:52:12;;;;;;;2.73;2.10;;;;;;;11.09;100.00;100576.16;4957692;29;20115;-92
2022/10/21 04:54:37;;;;;;;3.07;2.27;;;;;;;11.09;100.00;100584.78;4970638;28;20051;-92
2022/10/21 04:57:02;;;;;;;3.97;2.77;;;;;;;11.07;100.00;100581.38;4979231;28;20499;-93
2022/10/21 04:59:28;;;;;;;2.93;2.47;;;;;;;11.05;100.00;100571.91;4976884;28;20102;-92
2022/10/21 05:01:53;;;;;;;4.27;2.60;;;;;;;11.07;100.00;100572.72;4976409;28;20031;-93
2022/10/21 05:04:18;;;;;;;3.20;2.40;;;;;;;11.07;100.00;100571.00;4976461;28;20482;-93
2022/10/21 05:06:44;;;;;;;2.10;1.90;;;;;;;11.07;100.00;100577.91;4976837;28;20027;-93
2022/10/21 05:09:09;;;;;;;2.60;2.27;;;;;;;11.06;100.00;100582.25;4976519;28;20403;-93
2022/10/21 05:11:34;;;;;;;3.97;2.77;;;;;;;11.06;100.00;100574.47;4976564;28;20037;-93
2022/10/21 05:14:00;;;;;;;3.03;2.40;;;;;;;11.09;100.00;100576.16;4976066;28;20085;-93
2022/10/21 05:16:25;;;;;;;2.93;2.10;;;;;;;11.10;100.00;100580.44;4976824;28;20181;-93
2022/10/21 05:18:50;;;;;;;2.37;2.10;;;;;;;11.09;100.00;100576.16;4976359;28;20018;-93
2022/10/21 05:21:15;;;;;;;2.60;2.00;;;;;;;11.07;100.00;100580.50;4975924;28;20031;-93
2022/10/21 05:23:41;;;;;;;1.90;1.70;;;;;;;11.07;100.00;100565.81;4976018;28;20575;-93
2022/10/21 05:26:06;;;;;;;1.83;1.73;;;;;;;11.08;100.00;100561.44;4976306;28;20038;-93
2022/10/21 05:28:32;;;;;;;2.17;1.97;;;;;;;11.05;100.00;100556.31;4976076;28;20030;-93
2022/10/21 05:30:57;;;;;;;3.57;2.20;;;;;;;11.03;100.00;100555.50;4975994;28;20031;-93
2022/10/21 05:33:22;;;;;;;2.10;1.90;;;;;;;11.01;100.00;100554.69;4976289;28;20038;-89
2022/10/21 05:36:00;;;;;;;1.77;1.67;;;;;;;10.98;100.00;100555.59;4975204;28;20023;-90
2022/10/21 05:38:28;;;;;;;1.70;1.60;;;;;;;10.94;100.00;100554.81;4976003;28;20105;-87
2022/10/21 05:40:53;;;;;;;2.53;2.00;;;;;;;10.89;100.00;100548.88;4975502;28;20030;-89
2022/10/21 05:43:18;;;;;;;1.93;1.73;;;;;;;10.86;100.00;100537.69;4975720;28;20085;-89
2022/10/21 05:45:43;;;;;;;2.23;2.03;;;;;;;10.85;100.00;100541.19;4975715;28;20027;-89
2022/10/21 05:48:09;;;;;;;2.23;1.93;;;;;;;10.82;100.00;100534.28;4975739;28;20023;-94
2022/10/21 05:50:34;;;;;;;2.23;1.80;;;;;;;10.82;100.00;100535.16;4976437;28;20086;-94
2022/10/21 05:52:59;;;;;;;2.13;1.90;;;;;;;10.82;100.00;100531.69;4975913;28;20026;-93
2022/10/21 05:55:24;;;;;;;3.20;2.20;;;;;;;10.81;100.00;100537.78;4975547;28;20134;-94
2022/10/21 05:57:50;;;;;;;2.53;1.80;;;;;;;10.79;100.00;100526.59;4975011;28;20030;-94
2022/10/21 06:00:15;;;;;;;2.20;1.87;;;;;;;10.77;100.00;100528.38;4975876;28;20173;-94
2022/10/21 06:02:40;;;;;;;1.70;1.60;;;;;;;10.75;100.00;100538.75;4967603;28;20372;-94
2022/10/21 06:05:06;;;;;;;1.67;1.57;;;;;;;10.77;100.00;100539.59;4956422;29;20043;-94
2022/10/21 06:07:31;;;;;;;1.70;1.60;;;;;;;10.77;100.00;100536.16;4956374;29;20154;-94
2022/10/21 06:09:57;;;;;;;1.63;1.47;;;;;;;10.77;100.00;100538.75;4956292;29;20431;-94
2022/10/21 06:12:22;;;;;;;1.70;1.60;;;;;;;10.79;100.00;100534.38;4956598;29;20035;-93
2022/10/21 06:14:48;;;;;;;1.50;1.40;;;;;;;10.80;100.00;100531.75;4956578;28;20050;-93
2022/10/21 06:17:13;;;;;;;1.60;1.43;;;;;;;10.80;100.00;100531.75;4955780;29;20110;-94
2022/10/21 06:19:38;;;;;;;1.53;1.43;;;;;;;10.81;100.00;100527.38;4956451;29;20078;-93
2022/10/21 06:22:03;;;;;;;1.50;1.40;;;;;;;10.79;100.00;100530.03;4955987;29;20114;-94
2022/10/21 06:24:29;;;;;;;1.50;1.40;;;;;;;10.82;100.00;100526.50;4956171;29;20031;-93
2022/10/21 06:26:54;;;;;;;2.07;1.80;;;;;;;10.84;100.00;100527.34;4956005;29;20482;-90
2022/10/21 06:29:20;;;;;;;1.97;1.73;;;;;;;10.85;100.00;100523.84;4958300;29;20027;-96
2022/10/21 06:31:45;;;;;;;1.70;1.60;;;;;;;10.86;100.00;100529.91;4957718;29;20039;-93
2022/10/21 06:34:10;;;;;;;1.77;1.53;;;;;;;10.88;100.00;100535.91;4955795;29;20028;-94
2022/10/21 06:36:39;;;;;;;1.50;1.40;;;;;;;10.90;100.00;100540.19;4956045;29;20499;-94
2022/10/21 06:39:05;;;;;;;1.58;1.48;;;;;;;10.91;100.00;100528.06;4956194;29;20030;-92
2022/10/21 06:41:30;;;;;;;2.78;1.70;;;;;;;10.94;100.00;100533.19;4955864;29;20019;-91
2022/10/21 06:43:56;;;;;;;1.53;1.43;;;;;;;10.96;100.00;100540.06;4955837;29;20045;-91
2022/10/21 06:46:21;;;;;;;1.90;1.70;;;;;;;11.00;100.00;100545.19;4956068;28;20027;-91
2022/10/21 06:48:46;;;;;;;1.40;1.30;;;;;;;11.01;100.00;100549.50;4959777;29;20063;-90
2022/10/21 06:51:18;;;;;;;1.60;1.50;;;;;;;11.05;100.00;100564.09;4959870;29;20058;-91
2022/10/21 06:53:44;;;;;;;1.70;1.60;;;;;;;11.07;100.00;100557.13;4963900;28;20035;-91
2022/10/21 06:56:17;;;;;;;2.53;1.80;;;;;;;11.10;100.00;100564.88;4978692;28;20031;-91
2022/10/21 06:58:48;;;;;;;2.08;1.70;;;;;;;11.14;100.00;100576.91;4978984;28;20030;-91
2022/10/21 07:01:18;;;;;;;2.22;1.90;;;;;;;11.19;100.00;100582.00;4967621;28;20023;-91
2022/10/21 07:03:43;;;;;;;3.60;1.92;;;;;;;11.20;100.00;100581.97;4974355;28;20031;-92
2022/10/21 07:06:09;;;;;;;1.93;1.77;;;;;;;11.25;100.00;100592.25;4978775;28;20556;-92
2022/10/21 07:08:34;;;;;;;1.73;1.63;;;;;;;11.29;100.00;100591.28;4978800;28;20031;-91
2022/10/21 07:11:00;;;;;;;1.73;1.63;;;;;;;11.33;100.00;100592.06;4959714;28;20038;-91
2022/10/21 07:13:25;;;;;;;1.90;1.70;;;;;;;11.37;100.00;100609.31;4959378;29;20023;-88
2022/10/21 07:16:05;;;;;;;1.60;1.50;;;;;;;11.42;100.00;100612.66;4965292;28;20070;-93
2022/10/21 07:18:31;;;;;;;1.40;1.30;;;;;;;11.46;100.00;100610.84;4983321;28;20035;-94
2022/10/21 07:21:02;;;;;;;1.60;1.50;;;;;;;11.50;100.00;100605.53;4978382;28;20077;-94
2022/10/21 07:23:28;;;;;;;1.90;1.70;;;;;;;11.54;100.00;100608.94;4977384;28;20019;-94
2022/10/21 07:25:53;;;;;;;1.40;1.30;;;;;;;11.57;100.00;100607.13;4976608;28;20089;-94
2022/10/21 07:28:18;;;;;;;3.07;1.77;;;;;;;11.62;100.00;100608.72;4977692;28;20019;-94
2022/10/21 07:30:44;;;;;;;1.70;1.60;;;;;;;11.66;100.00;100616.41;4978400;28;20037;-94
2022/10/21 07:33:10;;;;;;;2.03;1.50;;;;;;;11.71;100.00;100613.72;4977221;28;20046;-94
2022/10/21 07:35:36;;;;;;;1.77;1.50;;;;;;;11.73;100.00;100610.22;4977977;28;20026;-94
2022/10/21 07:38:02;;;;;;;1.63;1.50;;;;;;;11.78;100.00;100620.50;4978419;28;20033;-94
2022/10/21 07:40:27;;;;;;;1.53;1.43;;;;;;;11.83;100.00;100616.03;4978450;28;20054;-94
2022/10/21 07:42:53;;;;;;;2.60;2.13;;;;;;;11.87;100.00;100615.06;4977401;28;20387;-93
2022/10/21 07:45:19;;;;;;;2.00;1.80;;;;;;;11.91;100.00;100613.25;4978240;28;20037;-94
2022/10/21 07:47:45;;;;;;;2.83;1.80;;;;;;;11.97;100.00;100622.63;4978017;28;20034;-94
2022/10/21 07:50:10;;;;;;;1.77;1.67;;;;;;;12.00;100.00;100622.59;4977327;28;20023;-94
2022/10/21 07:52:37;;;;;;;2.47;1.70;;;;;;;12.05;100.00;100628.53;4978060;28;20073;-94
2022/10/21 07:55:02;;;;;;;;;;;;;;;12.10;100.00;100626.69;4977960;28;20515;-94
2022/10/21 07:57:28;;;;;;;1.70;1.60;;;;;;;12.13;100.00;100624.00;4977697;28;19914;-94
2022/10/21 07:59:53;;;;;;;2.27;2.00;;;;;;;12.17;100.00;100633.44;4976919;28;20062;-95
2022/10/21 08:02:18;;;;;;;1.80;1.70;;;;;;;12.21;100.00;100631.63;4977029;28;20471;-94
2022/10/21 08:04:44;;;;;;;1.80;1.70;;;;;;;12.26;100.00;100626.31;4977713;28;20023;-94
2022/10/21 08:07:09;;;;;;;1.90;1.53;;;;;;;12.29;100.00;100624.47;4977371;28;20113;-94
2022/10/21 08:09:34;;;;;;;1.57;1.47;;;;;;;12.34;100.00;100633.00;4977087;28;20069;-94
2022/10/21 08:11:59;;;;;;;1.60;1.50;;;;;;;12.39;100.00;100621.63;4977409;28;20487;-94
2022/10/21 08:14:25;;;;;;;1.60;1.40;;;;;;;12.42;100.00;100625.00;4977377;28;20034;-94
2022/10/21 08:16:51;;;;;;;2.17;1.97;;;;;;;12.45;100.00;100611.03;4976589;28;20165;-94
2022/10/21 08:19:20;;;;;;;1.90;1.70;;;;;;;12.45;100.00;100618.84;4960516;28;20627;-94
2022/10/21 08:21:45;;;;;;;2.85;2.20;;;;;;;12.46;100.00;100612.75;4977722;28;20027;-94
2022/10/21 08:24:10;;;;;;;2.70;2.10;;;;;;;12.45;100.00;100606.69;4976973;28;20030;-94
2022/10/21 08:26:36;;;;;;;1.87;1.77;;;;;;;12.47;100.00;100610.13;4977390;28;20495;-94
2022/10/21 08:29:02;;;;;;;1.90;1.80;;;;;;;12.47;100.00;100617.94;4976984;28;20035;-94
2022/10/21 08:31:28;;;;;;;1.85;1.60;;;;;;;12.47;100.00;100636.16;4976609;28;20027;-94
2022/10/21 08:33:54;;;;;;;1.60;1.50;;;;;;;12.47;100.00;100635.28;4977057;28;20430;-94
2022/10/21 08:36:21;;;;;;;1.70;1.60;;;;;;;12.46;100.00;100630.97;4977184;28;20086;-94
2022/10/21 08:38:48;;;;;;;2.58;2.13;;;;;;;12.46;100.00;100636.16;4976582;28;20102;-94
2022/10/21 08:41:30;;;;;;;1.90;1.73;;;;;;;12.44;100.00;100633.63;4976847;28;20019;-94
2022/10/21 08:44:34;;;;;;;2.42;2.00;;;;;;;12.46;100.00;100637.03;4976818;28;20479;-93
2022/10/21 08:47:29;;;;;;;4.25;2.50;;;;;;;12.45;100.00;100637.94;4976308;28;20088;-94
2022/10/21 08:49:59;;;;;;;3.35;2.45;;;;;;;12.47;100.00;100649.16;4976971;28;20043;-94
2022/10/21 08:52:47;;;;;;;4.43;2.30;;;;;;;12.49;100.00;100649.09;4976006;28;20497;-93
2022/10/21 08:55:16;;;;;;;4.25;2.33;;;;;;;12.50;100.00;100646.44;4976618;28;20078;-94
2022/10/21 08:57:41;;;;;;;2.47;2.08;;;;;;;12.52;100.00;100647.28;4976956;28;20039;-94
2022/10/21 09:00:15;;;;;;;2.43;1.97;;;;;;;12.56;100.00;100650.66;4976226;28;20388;-94
2022/10/21 09:02:57;;;;;;;1.73;1.50;;;;;;;12.61;100.00;100650.56;4976722;28;20061;-94
2022/10/21 09:05:52;;;;;;;1.60;1.50;;;;;;;12.63;100.00;100659.16;4976762;28;20113;-94
2022/10/21 09:08:48;;;;;;;1.50;1.40;;;;;;;12.65;100.00;100668.66;4976565;28;20113;-95
2022/10/21 09:11:41;;;;;;;4.80;2.88;;;;;;;12.67;100.00;100671.19;4977414;28;20432;-95
2022/10/21 09:14:35;;;;;;;8.40;3.95;;;;;;;12.69;100.00;100668.53;4976277;28;20043;-94
2022/10/21 09:17:34;;;;;;;5.57;3.30;;;;;;;12.72;100.00;100665.88;4979726;28;20037;-94
2022/10/21 09:20:05;;;;;;;4.88;2.70;;;;;;;12.74;100.00;100662.31;4975697;28;20399;-93
2022/10/21 09:23:17;;;;;;;3.15;2.75;;;;;;;12.78;100.00;100650.06;4976492;28;20132;-93
2022/10/21 09:25:56;;;;;;;3.60;2.40;;;;;;;12.86;100.00;100647.25;4976148;28;20027;-93
2022/10/21 09:28:24;;;;;;;5.93;2.95;;;;;;;12.89;100.00;100639.34;4975585;28;20034;-93
2022/10/21 09:30:50;;;;;;;4.15;2.50;;;;;;;12.95;100.00;100639.16;4975845;28;20435;-88
2022/10/21 09:33:28;;;;;;;3.47;2.40;;;;;;;13.02;100.00;100632.91;4975750;28;20499;-89
2022/10/21 09:36:25;;;;;;;3.05;2.30;;;;;;;13.08;100.00;100637.09;4975399;28;20085;-89
2022/10/21 09:38:56;;;;;;;3.30;2.10;;;;;;;13.15;100.00;100643.81;4975532;28;20046;-89
2022/10/21 09:41:26;;;;;;;2.60;2.00;;;;;;;13.25;100.00;100647.84;4975918;28;20023;-90
2022/10/21 09:43:51;;;;;;;3.15;2.10;;;;;;;13.33;100.00;100637.19;4975975;28;20043;-91
2022/10/21 09:46:17;;;;;;;1.63;1.53;;;;;;;13.42;100.00;100636.94;4976163;28;20046;-90
2022/10/21 09:48:49;;;;;;;2.90;1.93;;;;;;;13.52;100.00;100632.31;4975562;28;20026;-90
2022/10/21 09:51:19;;;;;;;2.30;1.70;;;;;;;13.62;100.00;100638.13;4955986;29;20089;-91
2022/10/21 09:53:54;;;;;;;2.08;1.50;;;;;;;13.71;100.00;100631.72;4956249;29;20107;-90
2022/10/21 09:56:59;;;;;;;1.55;1.45;;;;;;;13.79;100.00;100634.94;4956495;29;20043;-91
2022/10/21 09:59:24;;;;;;;1.38;1.27;;;;;;;13.89;100.00;100635.50;4947712;29;20086;-91
2022/10/21 10:01:50;;;;;;;2.00;1.33;;;;;;;13.96;100.00;100636.16;4971548;28;20038;-91
2022/10/21 10:04:24;;;;;;;1.40;1.30;;;;;;;14.04;100.00;100641.97;4975618;28;20066;-91
2022/10/21 10:06:50;;;;;;;1.30;1.20;;;;;;;14.12;100.00;100660.00;4975509;28;20026;-90
2022/10/21 10:09:28;;;;;;;1.83;1.20;;;;;;;14.18;100.00;100652.81;4975918;28;20037;-89
2022/10/21 10:12:12;;;;;;;2.00;1.23;;;;;;;14.23;100.00;100652.66;4975223;28;20550;-90
2022/10/21 10:14:40;;;;;;;1.55;1.20;;;;;;;14.28;100.00;100648.16;4975711;28;20015;-91
2022/10/21 10:17:29;;;;;;;1.52;1.42;;;;;;;14.33;100.00;100656.66;4975182;28;20542;-91
2022/10/21 10:20:03;;;;;;;1.27;1.17;;;;;;;14.40;100.00;100661.69;4975450;28;20031;-90
2022/10/21 10:22:37;;;;;;;0.70;0.70;;;;;;;14.46;100.00;100662.34;4974745;28;20117;-90
2022/10/21 10:25:18;;;;;;;1.50;1.00;;;;;;;14.54;100.00;100669.03;4974906;28;20011;-91
2022/10/21 10:27:54;;;;;;;1.33;1.20;;;;;;;14.61;100.00;100666.16;4975861;28;20383;-88
2022/10/21 10:30:22;;;;;;;1.98;1.80;;;;;;;14.67;100.00;100659.91;4975665;28;20027;-90
2022/10/21 10:32:50;;;;;;;2.15;1.80;;;;;;;14.77;100.00;100661.28;4976192;28;20023;-90
2022/10/21 10:35:36;;;;;;;2.15;1.70;;;;;;;14.91;100.00;100670.41;4976870;28;20480;-90
2022/10/21 10:38:03;;;;;;;3.25;1.83;;;;;;;15.01;100.00;100663.91;4974600;28;20037;-89
2022/10/21 10:40:31;;;;;;;2.47;1.83;;;;;;;15.12;100.00;100668.72;4975095;28;20022;-91
2022/10/21 10:43:06;;;;;;;4.60;2.80;;;;;;;15.24;100.00;100664.81;4974750;28;20031;-90
2022/10/21 10:45:32;;;;;;;5.15;2.83;;;;;;;15.31;100.00;100660.22;4975166;28;20476;-92
2022/10/21 10:47:59;;;;;;;5.50;3.17;;;;;;;15.39;100.00;100664.22;4975182;28;20026;-91
2022/10/21 10:50:37;;;;;;;5.82;3.13;;;;;;;15.48;100.00;100667.41;4975199;28;20037;-93
2022/10/21 10:53:20;;;;;;;7.50;2.83;;;;;;;15.55;100.00;100671.50;4974875;28;20042;-91
2022/10/21 10:55:49;;;;;;;5.70;2.90;;;;;;;15.65;100.00;100669.38;4975273;28;20046;-90
2022/10/21 10:58:16;;;;;;;5.80;2.97;;;;;;;15.72;100.00;100661.19;4974315;28;20086;-88
2022/10/21 11:00:44;;;;;;;;;;;;;;;15.82;100.00;100666.94;4975116;28;20547;-89
2022/10/21 11:03:14;;;;;;;6.20;2.83;;;;;;;15.96;100.00;100666.41;4974396;28;20373;-88
2022/10/21 11:05:49;;;;;;;4.95;2.80;;;;;;;16.17;100.00;100659.44;4973532;28;20023;-89
2022/10/21 11:08:16;;;;;;;5.38;2.90;;;;;;;16.28;100.00;100658.97;4974057;28;20488;-89
2022/10/21 11:10:46;;;;;;;3.95;2.63;;;;;;;16.40;100.00;100648.88;4974186;28;20114;-90
2022/10/21 11:13:15;;;;;;;3.90;2.63;;;;;;;16.48;100.00;100652.88;4973142;28;20495;-92
2022/10/21 11:15:58;;;;;;;5.13;2.97;;;;;;;16.59;100.00;100643.72;4973945;28;20114;-89
2022/10/21 11:18:49;;;;;;;5.57;3.10;;;;;;;16.73;100.00;100637.84;4955224;29;20070;-89
2022/10/21 11:21:32;;;;;;;5.82;2.97;;;;;;;16.87;100.00;100632.03;4964306;28;20542;-85
2022/10/21 11:24:18;;;;;;;4.22;2.60;;;;;;;17.05;100.00;100630.38;4973356;28;20471;-85
2022/10/21 11:27:15;;;;;;;5.88;3.30;;;;;;;17.27;100.00;100643.31;4972127;28;20134;-85
2022/10/21 11:29:50;;;;;;;7.18;3.10;;;;;;;17.33;95.22;100640.44;4934207;29;20055;-85